createdAt,value
2022-11-10T00:02:31.632Z,100817.56
2022-11-10T00:09:38.133Z,100806.69
2022-11-10T00:16:55.203Z,100827.91
2022-11-10T00:23:59.725Z,100834.78
2022-11-10T00:31:09.558Z,100854.34
2022-11-10T00:38:13.344Z,100863.28
2022-11-10T00:45:17.201Z,100866.44
2022-11-10T00:52:23.707Z,100886.53
2022-11-10T00:59:27.987Z,100901.25
2022-11-10T01:06:32.315Z,100919.44
2022-11-10T01:13:39.369Z,100827.06
2022-11-10T01:20:43.120Z,100929.97
2022-11-10T01:27:47.089Z,100944.69
2022-11-10T01:34:53.755Z,100940.41
2022-11-10T01:41:57.656Z,100967.88
2022-11-10T01:49:04.893Z,100959.47
2022-11-10T01:56:12.706Z,100971.66
2022-11-10T02:03:20.038Z,100974.81
2022-11-10T02:10:24.765Z,100969.84
2022-11-10T02:17:31.440Z,100967.78
2022-11-10T02:24:37.857Z,100977.81
2022-11-10T02:31:41.975Z,100989.53
2022-11-10T02:38:46.055Z,100993.13
2022-11-10T02:45:52.465Z,101003.66
2022-11-10T02:52:56.555Z,101008.97
2022-11-10T03:00:00.683Z,100987.81
2022-11-10T03:07:11.969Z,100923.44
2022-11-10T03:14:15.921Z,101002.94
2022-11-10T03:21:20.111Z,101024.03
2022-11-10T03:28:27.004Z,101028.13
2022-11-10T03:35:31.108Z,101038.38
2022-11-10T03:42:35.254Z,101057.66
2022-11-10T04:03:30.103Z,101096.88
2022-11-10T04:10:34.673Z,101094.63
2022-11-10T04:17:38.884Z,101109.69
2022-11-10T04:24:47.756Z,101106.94
2022-11-10T04:31:51.619Z,101127.72
2022-11-10T04:38:56.279Z,101138.63
2022-11-10T04:46:05.016Z,101133.16
2022-11-10T04:53:08.949Z,101142.78
2022-11-10T05:00:15.655Z,101131.59
2022-11-10T05:07:22.044Z,101148.91
2022-11-10T05:14:25.953Z,101171.00
2022-11-10T05:21:30.791Z,101185.88
2022-11-10T05:28:38.084Z,101100.91
2022-11-10T05:35:42.866Z,101231.28
2022-11-10T05:42:47.668Z,101233.81
2022-11-10T05:49:54.476Z,101253.28
2022-11-10T05:56:58.304Z,101259.47
2022-11-10T06:04:02.237Z,101268.66
2022-11-10T06:11:09.476Z,101275.69
2022-11-10T06:18:13.363Z,101283.94
2022-11-10T06:25:17.273Z,101308.94
2022-11-10T06:32:24.056Z,101319.31
2022-11-10T06:39:28.034Z,101340.00
2022-11-10T06:46:34.176Z,101365.13
2022-11-10T06:53:44.615Z,101374.28
2022-11-10T07:00:49.343Z,101393.00
2022-11-10T07:07:53.330Z,101390.84
2022-11-10T07:14:59.934Z,101408.97
2022-11-10T07:22:09.594Z,101407.59
2022-11-10T07:29:14.706Z,101414.75
2022-11-10T07:36:21.590Z,101431.69
2022-11-10T07:43:27.662Z,101447.28
2022-11-10T07:50:32.146Z,101465.63
2022-11-10T07:57:39.005Z,101476.28
2022-11-10T08:04:43.091Z,101492.78
2022-11-10T08:11:47.073Z,101504.59
2022-11-10T08:18:53.856Z,101501.34
2022-11-10T08:26:00.681Z,101512.88
2022-11-10T08:33:07.664Z,101459.69
2022-11-10T08:40:15.786Z,101527.34
2022-11-10T08:47:19.466Z,101521.03
2022-11-10T08:54:23.457Z,101534.19
2022-11-10T09:01:30.160Z,101536.41
2022-11-10T09:08:34.802Z,101541.53
2022-11-10T09:15:39.938Z,101554.63
2022-11-10T09:22:46.597Z,101556.25
2022-11-10T09:29:50.753Z,101562.97
2022-11-10T09:36:54.664Z,101570.56
2022-11-10T09:44:08.005Z,101592.91
2022-11-10T09:51:18.533Z,101606.13
2022-11-10T09:58:28.436Z,101605.78
2022-11-10T10:05:56.995Z,101616.75
2022-11-10T10:13:21.536Z,101621.41
2022-11-10T10:20:36.156Z,101632.56
2022-11-10T10:27:44.426Z,101531.03
2022-11-10T10:34:49.659Z,101620.34
2022-11-10T10:41:53.744Z,101635.16
2022-11-10T10:49:28.472Z,101616.69
2022-11-10T10:56:36.259Z,101626.81
2022-11-10T11:03:46.717Z,101615.78
2022-11-10T11:10:53.356Z,101606.41
2022-11-10T11:17:59.219Z,101616.16
2022-11-10T11:25:15.356Z,101618.72
2022-11-10T11:32:54.508Z,101620.41
2022-11-10T11:40:15.220Z,101555.63
2022-11-10T11:47:40.413Z,101628.75
2022-11-10T11:55:04.426Z,101630.00
2022-11-10T12:02:52.479Z,101622.19
2022-11-10T12:10:13.004Z,101631.81
2022-11-10T12:17:25.172Z,101624.22
2022-11-10T12:24:51.446Z,101626.66
2022-11-10T12:32:04.576Z,101621.97
2022-11-10T12:39:19.741Z,101623.41
2022-11-10T12:46:23.477Z,101643.47
2022-11-10T12:53:33.661Z,101645.50
2022-11-10T13:00:45.794Z,101648.66
2022-11-10T13:07:53.332Z,101638.28
2022-11-10T13:14:59.840Z,101637.75
2022-11-10T13:22:14.631Z,101657.53
2022-11-10T13:29:37.480Z,101655.63
2022-11-10T13:36:46.162Z,101650.38
2022-11-10T13:43:56.109Z,101650.47
2022-11-10T13:51:13.573Z,101655.28
2022-11-10T13:58:29.808Z,101654.34
2022-11-10T14:06:07.801Z,101654.03
2022-11-10T14:13:19.898Z,101666.66
2022-11-10T14:20:33.004Z,101661.22
2022-11-10T14:27:39.198Z,101672.06
2022-11-10T14:34:50.189Z,101693.50
2022-11-10T14:41:57.333Z,101678.63
2022-11-10T14:49:02.574Z,101690.63
2022-11-10T14:56:16.438Z,101698.94
2022-11-10T15:03:31.351Z,101697.09
2022-11-10T15:10:50.643Z,101706.38
2022-11-10T15:17:55.679Z,101709.78
2022-11-10T15:25:04.236Z,101625.94
2022-11-10T15:32:20.339Z,101709.44
2022-11-10T15:39:28.760Z,101704.63
2022-11-10T15:46:35.500Z,101727.31
2022-11-10T15:53:42.029Z,101729.44
2022-11-10T16:00:46.199Z,101733.31
2022-11-10T16:07:52.708Z,101736.91
2022-11-10T16:14:56.958Z,101754.38
2022-11-10T16:22:00.622Z,101761.53
2022-11-10T16:29:13.800Z,101748.19
2022-11-10T16:36:26.812Z,101755.69
2022-11-10T16:43:32.794Z,101766.66
2022-11-10T16:50:40.501Z,101776.34
2022-11-10T16:57:44.637Z,101771.63
2022-11-10T17:04:48.993Z,101780.22
2022-11-10T17:11:55.475Z,101792.00
2022-11-10T17:19:02.180Z,101790.66
2022-11-10T17:26:06.221Z,101818.69
2022-11-10T17:33:13.863Z,101820.28
2022-11-10T17:40:23.151Z,101853.09
2022-11-10T17:47:27.229Z,101848.28
2022-11-10T17:54:34.121Z,101852.81
2022-11-10T18:01:38.345Z,101852.22
2022-11-10T18:08:42.187Z,101863.00
2022-11-10T18:15:54.265Z,101842.81
2022-11-10T18:22:58.080Z,101881.47
2022-11-10T18:30:02.547Z,101864.09
2022-11-10T18:37:09.219Z,101856.09
2022-11-10T18:44:13.723Z,101881.69
2022-11-10T18:51:18.960Z,101874.63
2022-11-10T18:58:26.054Z,101862.16
2022-11-10T19:05:30.983Z,101889.81
2022-11-10T19:12:35.214Z,101904.31
2022-11-10T19:19:41.731Z,101846.34
2022-11-10T19:26:45.876Z,101907.25
2022-11-10T19:33:50.556Z,101908.94
2022-11-10T19:40:57.167Z,101937.97
2022-11-10T19:48:01.099Z,101929.97
2022-11-10T19:55:05.063Z,101959.81
2022-11-10T20:02:13.819Z,101969.25
2022-11-10T20:09:17.987Z,101942.00
2022-11-10T20:16:21.780Z,101898.59
2022-11-10T20:23:28.607Z,101944.34
2022-11-10T20:30:33.476Z,101945.50
2022-11-10T20:37:37.870Z,101856.41
2022-11-10T20:44:44.749Z,101940.88
2022-11-10T20:51:48.920Z,101947.75
2022-11-10T20:58:53.612Z,101941.44
2022-11-10T21:06:01.956Z,101861.16
2022-11-10T21:13:05.941Z,101951.69
2022-11-10T21:20:11.805Z,101964.94
2022-11-10T21:27:18.283Z,101957.81
2022-11-10T21:34:22.697Z,101956.94
2022-11-10T21:41:26.630Z,101967.72
2022-11-10T21:48:33.641Z,101963.34
2022-11-10T21:55:37.689Z,101954.50
2022-11-10T22:02:41.501Z,101947.91
2022-11-10T22:10:00.831Z,101967.78
2022-11-10T22:17:17.525Z,101962.00
2022-11-10T22:24:27.275Z,101967.78
2022-11-10T22:31:36.657Z,101977.16
2022-11-10T22:38:43.320Z,101974.13
2022-11-10T22:45:48.547Z,101963.41
2022-11-10T22:52:55.726Z,101937.53
2022-11-10T22:59:59.945Z,101977.78
2022-11-10T23:07:05.238Z,101956.28
2022-11-10T23:14:13.520Z,101975.03
2022-11-10T23:21:20.183Z,101957.69
2022-11-10T23:28:24.082Z,101965.69
2022-11-10T23:35:30.897Z,101966.19
2022-11-10T23:42:34.857Z,101982.13
2022-11-10T23:49:38.688Z,101966.16
2022-11-10T23:56:45.350Z,101964.22
